sensor_id;sensor_type;location;lat;lon;timestamp;pressure;altitude;pressure_sealevel;temperature;humidity
55757;BME280;41676;44.610;44.078;2023-04-26T02:21:07;100249.25;;;10.67;98.14
55757;BME280;41676;44.610;44.078;2023-04-26T02:26:08;100224.06;;;10.55;97.62
55757;BME280;41676;44.610;44.078;2023-04-26T02:31:09;100252.38;;;10.79;97.26
55757;BME280;41676;44.610;44.078;2023-04-26T02:36:10;100209.59;;;10.65;97.04
55757;BME280;41676;44.610;44.078;2023-04-26T02:41:11;100196.56;;;10.79;97.17
55757;BME280;41676;44.610;44.078;2023-04-26T02:46:12;100265.13;;;11.54;97.69
55757;BME280;41676;44.610;44.078;2023-04-26T02:51:14;100249.00;;;12.01;96.97
55757;BME280;41676;44.610;44.078;2023-04-26T02:56:15;100271.59;;;12.58;95.80
55757;BME280;41676;44.610;44.078;2023-04-26T03:01:16;100233.78;;;13.14;94.09
55757;BME280;41676;44.610;44.078;2023-04-26T03:06:18;100274.66;;;14.43;90.92
55757;BME280;41676;44.610;44.078;2023-04-26T03:11:18;100275.59;;;15.40;87.50
55757;BME280;41676;44.610;44.078;2023-04-26T03:16:19;100288.31;;;16.59;83.54
55757;BME280;41676;44.610;44.078;2023-04-26T03:21:21;100279.03;;;17.33;79.14
55757;BME280;41676;44.610;44.078;2023-04-26T03:26:21;100284.13;;;17.86;72.90
55757;BME280;41676;44.610;44.078;2023-04-26T03:31:22;100239.53;;;18.03;69.81
55757;BME280;41676;44.610;44.078;2023-04-26T03:36:23;100292.41;;;18.85;67.28
55757;BME280;41676;44.610;44.078;2023-04-26T03:41:24;100247.44;;;19.04;65.67
55757;BME280;41676;44.610;44.078;2023-04-26T03:46:25;100294.16;;;20.30;63.18
55757;BME280;41676;44.610;44.078;2023-04-26T03:51:25;100293.56;;;20.28;61.96
55757;BME280;41676;44.610;44.078;2023-04-26T03:56:27;100292.09;;;20.79;60.35
55757;BME280;41676;44.610;44.078;2023-04-26T04:01:28;100307.78;;;19.81;59.57
55757;BME280;41676;44.610;44.078;2023-04-26T04:06:29;100229.66;;;17.97;62.64
55757;BME280;41676;44.610;44.078;2023-04-26T04:11:30;100300.84;;;18.20;61.82
55757;BME280;41676;44.610;44.078;2023-04-26T04:16:31;100231.22;;;17.87;61.61
55757;BME280;41676;44.610;44.078;2023-04-26T04:21:32;100310.19;;;17.34;62.16
55757;BME280;41676;44.610;44.078;2023-04-26T04:26:33;100312.47;;;16.46;63.70
55757;BME280;41676;44.610;44.078;2023-04-26T04:31:36;100276.91;;;15.64;66.31
55757;BME280;41676;44.610;44.078;2023-04-26T04:36:39;100310.31;;;15.68;66.60
55757;BME280;41676;44.610;44.078;2023-04-26T04:41:40;100332.28;;;15.57;67.53
55757;BME280;41676;44.610;44.078;2023-04-26T04:46:47;100324.28;;;15.63;67.98
55757;BME280;41676;44.610;44.078;2023-04-26T04:51:48;100330.03;;;15.67;68.61
55757;BME280;41676;44.610;44.078;2023-04-26T04:56:48;100323.88;;;15.66;68.88
55757;BME280;41676;44.610;44.078;2023-04-26T05:01:50;100335.50;;;15.93;68.72
55757;BME280;41676;44.610;44.078;2023-04-26T05:06:51;100325.81;;;15.99;68.13
55757;BME280;41676;44.610;44.078;2023-04-26T05:11:51;100277.97;;;15.76;67.44
55757;BME280;41676;44.610;44.078;2023-04-26T05:16:52;100327.28;;;16.08;67.71
55757;BME280;41676;44.610;44.078;2023-04-26T05:21:55;100242.97;;;15.78;67.20
55757;BME280;41676;44.610;44.078;2023-04-26T05:26:59;100238.03;;;16.28;66.59
55757;BME280;41676;44.610;44.078;2023-04-26T05:32:00;100287.53;;;17.68;63.85
55757;BME280;41676;44.610;44.078;2023-04-26T05:37:01;100265.75;;;18.08;62.15
55757;BME280;41676;44.610;44.078;2023-04-26T05:42:02;100216.28;;;17.91;60.10
55757;BME280;41676;44.610;44.078;2023-04-26T05:47:03;100283.81;;;18.26;60.29
55757;BME280;41676;44.610;44.078;2023-04-26T05:52:03;100259.28;;;18.41;59.95
55757;BME280;41676;44.610;44.078;2023-04-26T05:57:04;100216.94;;;18.55;58.45
55757;BME280;41676;44.610;44.078;2023-04-26T06:02:05;100273.22;;;19.30;58.08
55757;BME280;41676;44.610;44.078;2023-04-26T06:07:06;100275.88;;;19.48;57.01
55757;BME280;41676;44.610;44.078;2023-04-26T06:12:07;100197.72;;;19.06;56.69
55757;BME280;41676;44.610;44.078;2023-04-26T06:17:08;100272.78;;;19.63;55.99
55757;BME280;41676;44.610;44.078;2023-04-26T06:22:09;100261.25;;;19.86;55.63
55757;BME280;41676;44.610;44.078;2023-04-26T06:27:09;100241.00;;;19.83;55.13
55757;BME280;41676;44.610;44.078;2023-04-26T06:32:10;100260.84;;;20.24;54.74
55757;BME280;41676;44.610;44.078;2023-04-26T06:37:11;100257.78;;;20.21;54.50
55757;BME280;41676;44.610;44.078;2023-04-26T06:42:12;100261.09;;;20.46;54.25
55757;BME280;41676;44.610;44.078;2023-04-26T06:47:13;100246.44;;;20.54;54.21
55757;BME280;41676;44.610;44.078;2023-04-26T06:52:14;100221.56;;;20.64;53.56
55757;BME280;41676;44.610;44.078;2023-04-26T06:57:15;100245.25;;;20.85;53.13
55757;BME280;41676;44.610;44.078;2023-04-26T07:02:16;100246.09;;;21.14;52.90
55757;BME280;41676;44.610;44.078;2023-04-26T07:07:16;100252.53;;;21.25;52.35
55757;BME280;41676;44.610;44.078;2023-04-26T07:12:17;100246.09;;;21.55;52.09
55757;BME280;41676;44.610;44.078;2023-04-26T07:17:18;100240.84;;;21.48;51.76
55757;BME280;41676;44.610;44.078;2023-04-26T07:22:19;100229.81;;;21.67;51.26
55757;BME280;41676;44.610;44.078;2023-04-26T07:27:20;100153.00;;;21.51;50.70
55757;BME280;41676;44.610;44.078;2023-04-26T07:32:21;100153.53;;;21.81;50.30
55757;BME280;41676;44.610;44.078;2023-04-26T07:37:22;100219.53;;;22.53;49.70
55757;BME280;41676;44.610;44.078;2023-04-26T07:42:22;100222.06;;;22.60;49.25
55757;BME280;41676;44.610;44.078;2023-04-26T07:47:23;100205.03;;;22.42;48.12
55757;BME280;41676;44.610;44.078;2023-04-26T07:52:24;100215.41;;;22.89;48.19
55757;BME280;41676;44.610;44.078;2023-04-26T07:57:25;100192.22;;;22.76;48.19
55757;BME280;41676;44.610;44.078;2023-04-26T08:02:26;100202.94;;;23.10;47.59
55757;BME280;41676;44.610;44.078;2023-04-26T08:07:26;100140.88;;;22.87;47.09
55757;BME280;41676;44.610;44.078;2023-04-26T08:12:27;100147.41;;;23.13;47.19
55757;BME280;41676;44.610;44.078;2023-04-26T08:17:28;100097.03;;;22.90;46.87
55757;BME280;41676;44.610;44.078;2023-04-26T08:22:29;100146.66;;;23.50;46.72
55757;BME280;41676;44.610;44.078;2023-04-26T08:27:30;100143.94;;;23.77;46.44
55757;BME280;41676;44.610;44.078;2023-04-26T08:32:31;100133.03;;;23.72;45.65
55757;BME280;41676;44.610;44.078;2023-04-26T08:37:33;100139.34;;;24.25;44.96
55757;BME280;41676;44.610;44.078;2023-04-26T08:42:39;100135.66;;;23.99;43.97
55757;BME280;41676;44.610;44.078;2023-04-26T08:47:47;100117.91;;;24.23;43.32
55757;BME280;41676;44.610;44.078;2023-04-26T08:52:50;100026.22;;;23.78;43.24
55757;BME280;41676;44.610;44.078;2023-04-26T08:57:51;100140.31;;;24.51;43.19
55757;BME280;41676;44.610;44.078;2023-04-26T09:02:52;100130.81;;;24.58;43.19
55757;BME280;41676;44.610;44.078;2023-04-26T09:07:56;100120.53;;;24.66;42.45
55757;BME280;41676;44.610;44.078;2023-04-26T09:13:00;100118.72;;;24.24;42.87
55757;BME280;41676;44.610;44.078;2023-04-26T09:18:21;100115.38;;;24.06;42.14
55757;BME280;41676;44.610;44.078;2023-04-26T09:23:23;100076.69;;;23.79;43.27
55757;BME280;41676;44.610;44.078;2023-04-26T09:28:23;100042.00;;;23.86;42.77
55757;BME280;41676;44.610;44.078;2023-04-26T09:33:25;100077.38;;;24.74;42.37
55757;BME280;41676;44.610;44.078;2023-04-26T09:38:26;100082.66;;;25.22;41.73
55757;BME280;41676;44.610;44.078;2023-04-26T09:43:36;100085.34;;;25.27;41.13
55757;BME280;41676;44.610;44.078;2023-04-26T09:48:37;100075.50;;;25.72;41.00
55757;BME280;41676;44.610;44.078;2023-04-26T10:03:48;100055.44;;;25.53;39.45
55757;BME280;41676;44.610;44.078;2023-04-26T10:08:49;99952.97;;;25.17;39.46
55757;BME280;41676;44.610;44.078;2023-04-26T10:13:50;100083.28;;;26.30;38.63
55757;BME280;41676;44.610;44.078;2023-04-26T10:18:51;100072.44;;;26.14;38.97
55757;BME280;41676;44.610;44.078;2023-04-26T10:23:52;100063.94;;;26.26;37.95
55757;BME280;41676;44.610;44.078;2023-04-26T10:28:54;100064.41;;;26.54;37.23
55757;BME280;41676;44.610;44.078;2023-04-26T10:34:17;100063.44;;;26.19;35.71
55757;BME280;41676;44.610;44.078;2023-04-26T10:39:19;100059.00;;;26.38;37.37
55757;BME280;41676;44.610;44.078;2023-04-26T10:44:38;100050.44;;;27.05;36.79
55757;BME280;41676;44.610;44.078;2023-04-26T10:49:44;100052.53;;;27.18;36.26
55757;BME280;41676;44.610;44.078;2023-04-26T10:54:50;100050.50;;;26.95;35.01
55757;BME280;41676;44.610;44.078;2023-04-26T11:05:10;100034.69;;;26.57;35.92
55757;BME280;41676;44.610;44.078;2023-04-26T11:10:21;100036.53;;;26.67;35.30
55757;BME280;41676;44.610;44.078;2023-04-26T11:15:23;99997.75;;;25.56;36.09
55757;BME280;41676;44.610;44.078;2023-04-26T11:20:31;100019.78;;;25.54;36.50
55757;BME280;41676;44.610;44.078;2023-04-26T11:25:32;99969.00;;;24.93;36.92
55757;BME280;41676;44.610;44.078;2023-04-26T11:30:33;100016.56;;;25.26;37.38
55757;BME280;41676;44.610;44.078;2023-04-26T11:35:34;100002.66;;;25.48;36.73
55757;BME280;41676;44.610;44.078;2023-04-26T11:40:35;99977.88;;;25.60;36.24
55757;BME280;41676;44.610;44.078;2023-04-26T11:45:37;99944.00;;;25.01;36.61
55757;BME280;41676;44.610;44.078;2023-04-26T11:50:38;100003.50;;;25.39;36.80
55757;BME280;41676;44.610;44.078;2023-04-26T11:55:40;99995.09;;;25.15;37.09
55757;BME280;41676;44.610;44.078;2023-04-26T12:00:56;100000.25;;;25.26;36.09
55757;BME280;41676;44.610;44.078;2023-04-26T12:05:57;99999.13;;;24.76;37.22
55757;BME280;41676;44.610;44.078;2023-04-26T12:11:01;100001.59;;;25.03;37.26
55757;BME280;41676;44.610;44.078;2023-04-26T12:16:07;100010.56;;;24.78;37.57
55757;BME280;41676;44.610;44.078;2023-04-26T12:21:08;100000.50;;;24.94;37.74
55757;BME280;41676;44.610;44.078;2023-04-26T12:26:09;99993.97;;;24.65;37.96
55757;BME280;41676;44.610;44.078;2023-04-26T12:31:11;99992.63;;;24.62;38.26
55757;BME280;41676;44.610;44.078;2023-04-26T12:36:12;99999.41;;;24.75;37.66
55757;BME280;41676;44.610;44.078;2023-04-26T12:41:13;99988.53;;;24.54;37.51
55757;BME280;41676;44.610;44.078;2023-04-26T12:46:14;99980.38;;;24.65;37.31
55757;BME280;41676;44.610;44.078;2023-04-26T12:51:15;99982.00;;;24.55;37.66
55757;BME280;41676;44.610;44.078;2023-04-26T12:56:16;99962.88;;;24.20;37.87
55757;BME280;41676;44.610;44.078;2023-04-26T13:01:17;99989.72;;;24.11;38.27
55757;BME280;41676;44.610;44.078;2023-04-26T13:06:17;99993.50;;;24.00;38.61
55757;BME280;41676;44.610;44.078;2023-04-26T13:11:18;99919.22;;;23.53;39.37
55757;BME280;41676;44.610;44.078;2023-04-26T13:16:19;99996.75;;;24.02;39.31
55757;BME280;41676;44.610;44.078;2023-04-26T13:21:20;99976.75;;;24.28;38.94
55757;BME280;41676;44.610;44.078;2023-04-26T13:26:21;99959.34;;;24.14;38.70
55757;BME280;41676;44.610;44.078;2023-04-26T13:31:21;99996.00;;;24.22;38.93
55757;BME280;41676;44.610;44.078;2023-04-26T13:36:22;99991.28;;;23.91;39.13
55757;BME280;41676;44.610;44.078;2023-04-26T13:41:23;99978.13;;;23.68;39.18
55757;BME280;41676;44.610;44.078;2023-04-26T13:46:24;99966.16;;;23.59;39.24
55757;BME280;41676;44.610;44.078;2023-04-26T13:51:25;99974.75;;;23.98;38.85
55757;BME280;41676;44.610;44.078;2023-04-26T13:56:26;99987.25;;;23.94;38.90
55757;BME280;41676;44.610;44.078;2023-04-26T14:01:27;100003.50;;;23.89;38.89
55757;BME280;41676;44.610;44.078;2023-04-26T14:06:29;99997.03;;;23.53;38.84
55757;BME280;41676;44.610;44.078;2023-04-26T14:11:32;99985.75;;;23.29;39.46
55757;BME280;41676;44.610;44.078;2023-04-26T14:16:32;99990.50;;;23.11;39.89
55757;BME280;41676;44.610;44.078;2023-04-26T14:21:33;99986.19;;;23.15;39.87
55757;BME280;41676;44.610;44.078;2023-04-26T14:26:34;99905.19;;;22.76;39.71
55757;BME280;41676;44.610;44.078;2023-04-26T14:31:35;99974.22;;;23.43;39.12
55757;BME280;41676;44.610;44.078;2023-04-26T14:36:36;99923.56;;;23.07;38.90
55757;BME280;41676;44.610;44.078;2023-04-26T14:41:37;99936.31;;;23.11;39.14
55757;BME280;41676;44.610;44.078;2023-04-26T14:46:38;99969.75;;;23.22;39.31
55757;BME280;41676;44.610;44.078;2023-04-26T14:51:38;99956.81;;;22.97;39.53
55757;BME280;41676;44.610;44.078;2023-04-26T14:56:39;99963.72;;;22.83;39.81
55757;BME280;41676;44.610;44.078;2023-04-26T15:01:40;99941.47;;;22.48;40.18
55757;BME280;41676;44.610;44.078;2023-04-26T15:06:41;99886.72;;;21.87;40.80
55757;BME280;41676;44.610;44.078;2023-04-26T15:11:41;99979.94;;;22.23;41.15
55757;BME280;41676;44.610;44.078;2023-04-26T15:16:42;99978.47;;;21.94;41.43
55757;BME280;41676;44.610;44.078;2023-04-26T15:21:44;99978.63;;;21.65;41.87
55757;BME280;41676;44.610;44.078;2023-04-26T15:26:45;99988.09;;;21.46;42.57
55757;BME280;41676;44.610;44.078;2023-04-26T15:31:46;99958.81;;;21.04;43.06
55757;BME280;41676;44.610;44.078;2023-04-26T15:36:47;99979.00;;;20.84;43.72
55757;BME280;41676;44.610;44.078;2023-04-26T15:41:47;99988.72;;;20.68;44.14
55757;BME280;41676;44.610;44.078;2023-04-26T15:46:48;99963.09;;;20.25;44.82
55757;BME280;41676;44.610;44.078;2023-04-26T15:51:49;99924.38;;;19.74;45.55
55757;BME280;41676;44.610;44.078;2023-04-26T15:56:50;100023.78;;;19.99;45.80
55757;BME280;41676;44.610;44.078;2023-04-26T16:01:52;100007.66;;;19.76;46.13
55757;BME280;41676;44.610;44.078;2023-04-26T16:06:52;100021.84;;;19.59;46.64
55757;BME280;41676;44.610;44.078;2023-04-26T16:11:53;100010.47;;;19.34;47.02
55757;BME280;41676;44.610;44.078;2023-04-26T16:16:54;100024.16;;;19.21;47.31
55757;BME280;41676;44.610;44.078;2023-04-26T16:21:55;100036.88;;;19.02;47.89
55757;BME280;41676;44.610;44.078;2023-04-26T16:26:56;100034.50;;;18.82;48.09
55757;BME280;41676;44.610;44.078;2023-04-26T16:31:57;100037.78;;;18.65;48.27
55757;BME280;41676;44.610;44.078;2023-04-26T16:36:57;100010.53;;;18.32;48.54
55757;BME280;41676;44.610;44.078;2023-04-26T16:41:58;100024.88;;;18.25;48.74
55757;BME280;41676;44.610;44.078;2023-04-26T16:47:00;100041.31;;;18.17;49.25
55757;BME280;41676;44.610;44.078;2023-04-26T16:52:01;99973.97;;;17.57;49.53
55757;BME280;41676;44.610;44.078;2023-04-26T16:57:02;100046.97;;;17.91;49.17
55757;BME280;41676;44.610;44.078;2023-04-26T17:02:03;100037.81;;;17.73;49.16
55757;BME280;41676;44.610;44.078;2023-04-26T17:07:04;100058.78;;;17.65;49.52
55757;BME280;41676;44.610;44.078;2023-04-26T17:12:05;100067.13;;;17.56;49.39
55757;BME280;41676;44.610;44.078;2023-04-26T17:17:06;100083.47;;;17.55;49.56
55757;BME280;41676;44.610;44.078;2023-04-26T17:22:07;100044.28;;;17.22;49.96
55757;BME280;41676;44.610;44.078;2023-04-26T17:27:08;100010.91;;;16.86;50.31
55757;BME280;41676;44.610;44.078;2023-04-26T17:32:09;100051.22;;;17.05;50.58
55757;BME280;41676;44.610;44.078;2023-04-26T17:37:10;100076.41;;;17.04;50.86
55757;BME280;41676;44.610;44.078;2023-04-26T17:42:11;100068.03;;;16.94;50.93
55757;BME280;41676;44.610;44.078;2023-04-26T17:47:12;100050.97;;;16.75;51.11
55757;BME280;41676;44.610;44.078;2023-04-26T17:52:13;100079.50;;;16.76;51.14
55757;BME280;41676;44.610;44.078;2023-04-26T17:57:14;100077.22;;;16.66;51.49
55757;BME280;41676;44.610;44.078;2023-04-26T18:02:19;100068.63;;;16.51;51.75
55757;BME280;41676;44.610;44.078;2023-04-26T18:07:20;100068.91;;;16.42;51.87
55757;BME280;41676;44.610;44.078;2023-04-26T18:12:21;99934.03;;;15.39;52.39
55757;BME280;41676;44.610;44.078;2023-04-26T18:17:22;100033.41;;;15.82;52.59
55757;BME280;41676;44.610;44.078;2023-04-26T18:22:23;100088.00;;;16.01;52.91
55757;BME280;41676;44.610;44.078;2023-04-26T18:27:24;100071.13;;;15.87;53.31
55757;BME280;41676;44.610;44.078;2023-04-26T18:32:25;100063.94;;;15.74;53.58
55757;BME280;41676;44.610;44.078;2023-04-26T18:37:26;99973.59;;;15.17;53.59
55757;BME280;41676;44.610;44.078;2023-04-26T18:42:27;100009.81;;;15.26;53.62
55757;BME280;41676;44.610;44.078;2023-04-26T18:47:28;100058.16;;;15.58;53.98
55757;BME280;41676;44.610;44.078;2023-04-26T18:52:28;100027.50;;;15.34;53.99
55757;BME280;41676;44.610;44.078;2023-04-26T18:57:29;100059.00;;;15.45;54.26
55757;BME280;41676;44.610;44.078;2023-04-26T19:02:30;100042.09;;;15.31;54.42
55757;BME280;41676;44.610;44.078;2023-04-26T19:07:31;99948.69;;;14.63;54.63
55757;BME280;41676;44.610;44.078;2023-04-26T19:12:32;100040.47;;;15.17;54.73
55757;BME280;41676;44.610;44.078;2023-04-26T19:17:32;100030.59;;;15.11;54.78
55757;BME280;41676;44.610;44.078;2023-04-26T19:22:34;100005.69;;;14.90;54.69
55757;BME280;41676;44.610;44.078;2023-04-26T19:27:35;100043.94;;;14.97;55.30
55757;BME280;41676;44.610;44.078;2023-04-26T19:32:36;100033.84;;;14.86;55.42
55757;BME280;41676;44.610;44.078;2023-04-26T19:37:37;100002.97;;;14.57;55.59
55757;BME280;41676;44.610;44.078;2023-04-26T19:42:37;100028.25;;;14.61;56.10
55757;BME280;41676;44.610;44.078;2023-04-26T19:47:41;100034.00;;;14.51;56.96
55757;BME280;41676;44.610;44.078;2023-04-26T19:52:42;100013.97;;;14.41;56.51
55757;BME280;41676;44.610;44.078;2023-04-26T19:57:43;100022.78;;;14.34;56.46
55757;BME280;41676;44.610;44.078;2023-04-26T20:02:44;100026.28;;;14.28;56.71
55757;BME280;41676;44.610;44.078;2023-04-26T20:07:44;100004.41;;;14.11;56.78
55757;BME280;41676;44.610;44.078;2023-04-26T20:12:45;100035.09;;;14.29;56.69
55757;BME280;41676;44.610;44.078;2023-04-26T20:17:46;100008.28;;;14.02;57.28
55757;BME280;41676;44.610;44.078;2023-04-26T20:22:47;100038.13;;;14.12;57.74
55757;BME280;41676;44.610;44.078;2023-04-26T20:27:48;100065.44;;;14.14;58.18
55757;BME280;41676;44.610;44.078;2023-04-26T20:32:49;100028.88;;;13.74;58.25
55757;BME280;41676;44.610;44.078;2023-04-26T20:37:49;100028.56;;;13.55;58.89
55757;BME280;41676;44.610;44.078;2023-04-26T20:42:50;99942.56;;;12.75;59.51
55757;BME280;41676;44.610;44.078;2023-04-26T20:47:52;100073.66;;;13.43;59.41
55757;BME280;41676;44.610;44.078;2023-04-26T20:52:52;100085.97;;;13.44;59.97
55757;BME280;41676;44.610;44.078;2023-04-26T20:57:53;100006.28;;;12.92;59.84
55757;BME280;41676;44.610;44.078;2023-04-26T21:02:54;100090.47;;;13.44;60.00
55757;BME280;41676;44.610;44.078;2023-04-26T21:07:55;100073.66;;;13.43;60.08
55757;BME280;41676;44.610;44.078;2023-04-26T21:12:55;100083.03;;;13.39;60.28
55757;BME280;41676;44.610;44.078;2023-04-26T21:17:56;100062.50;;;13.18;60.62
55757;BME280;41676;44.610;44.078;2023-04-26T21:22:57;100068.34;;;13.07;61.17
55757;BME280;41676;44.610;44.078;2023-04-26T21:27:58;100054.78;;;13.02;61.67
55757;BME280;41676;44.610;44.078;2023-04-26T21:32:58;100042.38;;;12.94;61.65
55757;BME280;41676;44.610;44.078;2023-04-26T21:37:59;99980.81;;;12.68;61.92
55757;BME280;41676;44.610;44.078;2023-04-26T21:43:00;100035.09;;;13.03;62.22
55757;BME280;41676;44.610;44.078;2023-04-26T21:48:01;100039.97;;;12.99;62.38
55757;BME280;41676;44.610;44.078;2023-04-26T21:53:02;100032.50;;;12.88;62.52
55757;BME280;41676;44.610;44.078;2023-04-26T21:58:02;99952.06;;;12.20;63.10
55757;BME280;41676;44.610;44.078;2023-04-26T22:03:03;99961.72;;;12.21;63.54
55757;BME280;41676;44.610;44.078;2023-04-26T22:08:04;99936.13;;;12.05;63.55
55757;BME280;41676;44.610;44.078;2023-04-26T22:13:05;99998.00;;;12.44;63.33
55757;BME280;41676;44.610;44.078;2023-04-26T22:18:06;100001.38;;;12.52;63.01
55757;BME280;41676;44.610;44.078;2023-04-26T22:23:07;99997.56;;;12.40;63.81
55757;BME280;41676;44.610;44.078;2023-04-26T22:28:08;99976.75;;;12.29;64.17
55757;BME280;41676;44.610;44.078;2023-04-26T22:33:09;99992.16;;;12.33;64.41
55757;BME280;41676;44.610;44.078;2023-04-26T22:38:11;99984.09;;;12.27;64.15
55757;BME280;41676;44.610;44.078;2023-04-26T22:43:12;99973.72;;;12.17;64.31
55757;BME280;41676;44.610;44.078;2023-04-26T22:48:13;99974.09;;;12.14;64.37
55757;BME280;41676;44.610;44.078;2023-04-26T22:53:13;99913.88;;;11.62;64.48
55757;BME280;41676;44.610;44.078;2023-04-26T22:58:14;99983.06;;;12.06;65.24
55757;BME280;41676;44.610;44.078;2023-04-26T23:03:16;99963.31;;;12.01;65.21
55757;BME280;41676;44.610;44.078;2023-04-26T23:08:17;99882.63;;;11.49;65.42
55757;BME280;41676;44.610;44.078;2023-04-26T23:13:18;99941.50;;;11.91;66.16
55757;BME280;41676;44.610;44.078;2023-04-26T23:18:18;99936.53;;;11.87;66.80
55757;BME280;41676;44.610;44.078;2023-04-26T23:23:19;99982.31;;;11.83;67.75
55757;BME280;41676;44.610;44.078;2023-04-26T23:28:20;99978.47;;;11.71;68.83
55757;BME280;41676;44.610;44.078;2023-04-26T23:33:21;99968.72;;;11.63;68.74
55757;BME280;41676;44.610;44.078;2023-04-26T23:38:23;99951.03;;;11.40;69.18
55757;BME280;41676;44.610;44.078;2023-04-26T23:43:24;99980.38;;;11.47;70.04
55757;BME280;41676;44.610;44.078;2023-04-26T23:48:25;99980.66;;;11.37;70.50
55757;BME280;41676;44.610;44.078;2023-04-26T23:53:26;99909.91;;;10.84;70.65
55757;BME280;41676;44.610;44.078;2023-04-26T23:58:27;99956.75;;;11.00;71.13
